sensor_id;sensor_type;location;lat;lon;timestamp;temperature;humidity
9849;DHT22;4963;51.444;6.528;2023-05-10T00:02:01;15.70;99.90
9849;DHT22;4963;51.444;6.528;2023-05-10T00:04:28;15.70;99.90
9849;DHT22;4963;51.444;6.528;2023-05-10T00:06:56;15.70;99.90
9849;DHT22;4963;51.444;6.528;2023-05-10T00:09:23;15.70;99.90
9849;DHT22;4963;51.444;6.528;2023-05-10T00:11:50;15.70;99.90
9849;DHT22;4963;51.444;6.528;2023-05-10T00:14:17;15.60;99.90
9849;DHT22;4963;51.444;6.528;2023-05-10T00:16:44;15.60;99.90
9849;DHT22;4963;51.444;6.528;2023-05-10T00:19:11;15.60;99.90
9849;DHT22;4963;51.444;6.528;2023-05-10T00:21:37;15.70;99.90
9849;DHT22;4963;51.444;6.528;2023-05-10T00:24:06;15.60;99.90
9849;DHT22;4963;51.444;6.528;2023-05-10T00:26:33;15.60;99.90
9849;DHT22;4963;51.444;6.528;2023-05-10T00:29:00;15.60;99.90
9849;DHT22;4963;51.444;6.528;2023-05-10T00:31:27;15.70;99.90
9849;DHT22;4963;51.444;6.528;2023-05-10T00:33:54;15.60;99.90
9849;DHT22;4963;51.444;6.528;2023-05-10T00:36:20;15.50;99.90
9849;DHT22;4963;51.444;6.528;2023-05-10T00:38:47;15.60;99.90
9849;DHT22;4963;51.444;6.528;2023-05-10T00:41:15;15.50;99.90
9849;DHT22;4963;51.444;6.528;2023-05-10T00:43:42;15.50;99.90
9849;DHT22;4963;51.444;6.528;2023-05-10T00:46:09;15.60;99.90
9849;DHT22;4963;51.444;6.528;2023-05-10T00:48:36;15.50;99.90
9849;DHT22;4963;51.444;6.528;2023-05-10T00:51:04;15.50;99.90
9849;DHT22;4963;51.444;6.528;2023-05-10T00:53:31;15.50;99.90
9849;DHT22;4963;51.444;6.528;2023-05-10T00:55:59;15.50;99.90
9849;DHT22;4963;51.444;6.528;2023-05-10T00:58:27;15.50;99.90
9849;DHT22;4963;51.444;6.528;2023-05-10T01:00:56;15.50;99.90
9849;DHT22;4963;51.444;6.528;2023-05-10T01:03:24;15.40;99.90
9849;DHT22;4963;51.444;6.528;2023-05-10T01:05:51;15.40;99.90
9849;DHT22;4963;51.444;6.528;2023-05-10T01:08:19;15.40;99.90
9849;DHT22;4963;51.444;6.528;2023-05-10T01:10:46;15.40;99.90
9849;DHT22;4963;51.444;6.528;2023-05-10T01:13:18;15.30;99.90
9849;DHT22;4963;51.444;6.528;2023-05-10T01:15:50;15.30;99.90
9849;DHT22;4963;51.444;6.528;2023-05-10T01:18:19;15.20;99.90
9849;DHT22;4963;51.444;6.528;2023-05-10T01:20:50;15.20;99.90
9849;DHT22;4963;51.444;6.528;2023-05-10T01:26:51;15.20;99.90
9849;DHT22;4963;51.444;6.528;2023-05-10T01:29:39;15.20;99.90
9849;DHT22;4963;51.444;6.528;2023-05-10T01:32:18;15.20;99.90
9849;DHT22;4963;51.444;6.528;2023-05-10T01:34:51;15.20;99.90
9849;DHT22;4963;51.444;6.528;2023-05-10T01:37:23;15.20;99.90
9849;DHT22;4963;51.444;6.528;2023-05-10T01:39:58;15.20;99.90
9849;DHT22;4963;51.444;6.528;2023-05-10T01:42:29;15.20;99.90
9849;DHT22;4963;51.444;6.528;2023-05-10T01:45:12;15.10;99.90
9849;DHT22;4963;51.444;6.528;2023-05-10T01:47:44;15.10;99.90
9849;DHT22;4963;51.444;6.528;2023-05-10T01:50:17;15.20;99.90
9849;DHT22;4963;51.444;6.528;2023-05-10T01:52:49;15.10;99.90
9849;DHT22;4963;51.444;6.528;2023-05-10T01:55:20;15.10;99.90
9849;DHT22;4963;51.444;6.528;2023-05-10T01:57:52;15.10;99.90
9849;DHT22;4963;51.444;6.528;2023-05-10T02:00:23;15.10;99.90
9849;DHT22;4963;51.444;6.528;2023-05-10T02:02:52;15.00;99.90
9849;DHT22;4963;51.444;6.528;2023-05-10T02:05:21;15.00;99.90
9849;DHT22;4963;51.444;6.528;2023-05-10T02:07:49;15.00;99.90
9849;DHT22;4963;51.444;6.528;2023-05-10T02:10:17;15.00;99.90
9849;DHT22;4963;51.444;6.528;2023-05-10T02:12:47;15.00;99.90
9849;DHT22;4963;51.444;6.528;2023-05-10T02:15:17;15.10;99.90
9849;DHT22;4963;51.444;6.528;2023-05-10T02:17:46;15.00;99.90
9849;DHT22;4963;51.444;6.528;2023-05-10T02:20:16;14.90;99.90
9849;DHT22;4963;51.444;6.528;2023-05-10T02:22:45;15.00;99.90
9849;DHT22;4963;51.444;6.528;2023-05-10T02:25:14;15.00;99.90
9849;DHT22;4963;51.444;6.528;2023-05-10T02:27:43;14.90;99.90
9849;DHT22;4963;51.444;6.528;2023-05-10T02:30:11;15.00;99.90
9849;DHT22;4963;51.444;6.528;2023-05-10T02:32:39;14.80;99.90
9849;DHT22;4963;51.444;6.528;2023-05-10T02:35:08;14.90;99.90
9849;DHT22;4963;51.444;6.528;2023-05-10T02:37:38;14.90;99.90
9849;DHT22;4963;51.444;6.528;2023-05-10T02:40:07;14.90;99.90
9849;DHT22;4963;51.444;6.528;2023-05-10T02:42:37;14.90;99.90
9849;DHT22;4963;51.444;6.528;2023-05-10T02:45:08;15.00;99.90
9849;DHT22;4963;51.444;6.528;2023-05-10T02:47:37;14.90;99.90
9849;DHT22;4963;51.444;6.528;2023-05-10T02:50:04;15.20;99.90
9849;DHT22;4963;51.444;6.528;2023-05-10T02:52:40;14.90;99.90
9849;DHT22;4963;51.444;6.528;2023-05-10T02:55:11;14.90;99.90
9849;DHT22;4963;51.444;6.528;2023-05-10T02:57:43;15.20;99.90
9849;DHT22;4963;51.444;6.528;2023-05-10T03:00:11;14.90;99.90
9849;DHT22;4963;51.444;6.528;2023-05-10T03:02:38;14.70;99.90
9849;DHT22;4963;51.444;6.528;2023-05-10T03:05:05;14.90;99.90
9849;DHT22;4963;51.444;6.528;2023-05-10T03:07:44;15.00;99.90
9849;DHT22;4963;51.444;6.528;2023-05-10T03:10:14;14.90;99.90
9849;DHT22;4963;51.444;6.528;2023-05-10T03:12:52;14.90;99.90
9849;DHT22;4963;51.444;6.528;2023-05-10T03:15:27;14.90;99.90
9849;DHT22;4963;51.444;6.528;2023-05-10T03:18:06;14.80;99.90
9849;DHT22;4963;51.444;6.528;2023-05-10T03:20:37;15.20;99.90
9849;DHT22;4963;51.444;6.528;2023-05-10T03:23:12;15.10;99.90
9849;DHT22;4963;51.444;6.528;2023-05-10T03:25:41;14.80;99.90
9849;DHT22;4963;51.444;6.528;2023-05-10T03:28:09;15.00;99.90
9849;DHT22;4963;51.444;6.528;2023-05-10T03:30:37;14.90;99.90
9849;DHT22;4963;51.444;6.528;2023-05-10T03:33:06;14.80;99.90
9849;DHT22;4963;51.444;6.528;2023-05-10T03:35:33;15.00;99.90
9849;DHT22;4963;51.444;6.528;2023-05-10T03:38:00;15.00;99.90
9849;DHT22;4963;51.444;6.528;2023-05-10T03:40:29;14.80;99.90
9849;DHT22;4963;51.444;6.528;2023-05-10T03:42:57;14.70;99.90
9849;DHT22;4963;51.444;6.528;2023-05-10T03:45:25;14.90;99.90
9849;DHT22;4963;51.444;6.528;2023-05-10T03:47:52;14.80;99.90
9849;DHT22;4963;51.444;6.528;2023-05-10T03:50:19;14.90;99.90
9849;DHT22;4963;51.444;6.528;2023-05-10T03:52:46;14.90;99.90
9849;DHT22;4963;51.444;6.528;2023-05-10T03:55:13;14.90;99.90
9849;DHT22;4963;51.444;6.528;2023-05-10T03:57:43;15.00;99.90
9849;DHT22;4963;51.444;6.528;2023-05-10T04:00:12;14.80;99.90
9849;DHT22;4963;51.444;6.528;2023-05-10T04:02:39;14.90;99.90
9849;DHT22;4963;51.444;6.528;2023-05-10T04:05:07;15.00;99.90
9849;DHT22;4963;51.444;6.528;2023-05-10T04:07:34;14.80;99.90
9849;DHT22;4963;51.444;6.528;2023-05-10T04:10:02;14.80;99.90
9849;DHT22;4963;51.444;6.528;2023-05-10T04:12:29;14.90;99.90
9849;DHT22;4963;51.444;6.528;2023-05-10T04:14:57;15.20;99.90
9849;DHT22;4963;51.444;6.528;2023-05-10T04:17:24;14.90;99.90
9849;DHT22;4963;51.444;6.528;2023-05-10T04:19:54;14.90;99.90
9849;DHT22;4963;51.444;6.528;2023-05-10T04:22:22;15.00;99.90
9849;DHT22;4963;51.444;6.528;2023-05-10T04:24:49;15.00;99.90
9849;DHT22;4963;51.444;6.528;2023-05-10T04:27:20;15.00;99.90
9849;DHT22;4963;51.444;6.528;2023-05-10T04:29:47;15.00;99.90
9849;DHT22;4963;51.444;6.528;2023-05-10T04:32:16;15.00;99.90
9849;DHT22;4963;51.444;6.528;2023-05-10T04:34:43;15.00;99.90
9849;DHT22;4963;51.444;6.528;2023-05-10T04:37:12;15.10;99.90
9849;DHT22;4963;51.444;6.528;2023-05-10T04:39:39;14.90;99.90
9849;DHT22;4963;51.444;6.528;2023-05-10T04:42:07;15.00;99.90
9849;DHT22;4963;51.444;6.528;2023-05-10T04:44:34;15.10;99.90
9849;DHT22;4963;51.444;6.528;2023-05-10T04:47:06;15.00;99.90
9849;DHT22;4963;51.444;6.528;2023-05-10T04:49:38;14.70;99.90
9849;DHT22;4963;51.444;6.528;2023-05-10T04:52:05;15.20;99.90
9849;DHT22;4963;51.444;6.528;2023-05-10T04:54:32;15.10;99.90
9849;DHT22;4963;51.444;6.528;2023-05-10T04:57:00;15.00;99.90
9849;DHT22;4963;51.444;6.528;2023-05-10T04:59:51;15.10;99.90
9849;DHT22;4963;51.444;6.528;2023-05-10T05:02:28;14.90;99.90
9849;DHT22;4963;51.444;6.528;2023-05-10T05:04:58;15.30;99.90
9849;DHT22;4963;51.444;6.528;2023-05-10T05:07:25;15.10;99.90
9849;DHT22;4963;51.444;6.528;2023-05-10T05:09:52;15.00;99.90
9849;DHT22;4963;51.444;6.528;2023-05-10T05:12:21;15.00;99.90
9849;DHT22;4963;51.444;6.528;2023-05-10T05:15:03;15.10;99.90
9849;DHT22;4963;51.444;6.528;2023-05-10T05:17:32;15.00;99.90
9849;DHT22;4963;51.444;6.528;2023-05-10T05:20:05;14.90;99.90
9849;DHT22;4963;51.444;6.528;2023-05-10T05:22:32;15.10;99.90
9849;DHT22;4963;51.444;6.528;2023-05-10T05:24:59;15.10;99.90
9849;DHT22;4963;51.444;6.528;2023-05-10T05:27:28;15.10;99.90
9849;DHT22;4963;51.444;6.528;2023-05-10T05:29:55;15.00;99.90
9849;DHT22;4963;51.444;6.528;2023-05-10T05:32:22;15.00;99.90
9849;DHT22;4963;51.444;6.528;2023-05-10T05:34:53;15.10;99.90
9849;DHT22;4963;51.444;6.528;2023-05-10T05:37:33;15.30;99.90
9849;DHT22;4963;51.444;6.528;2023-05-10T05:40:00;15.00;99.90
9849;DHT22;4963;51.444;6.528;2023-05-10T05:42:28;14.70;99.90
9849;DHT22;4963;51.444;6.528;2023-05-10T05:44:55;14.90;99.90
9849;DHT22;4963;51.444;6.528;2023-05-10T05:47:30;15.10;99.90
9849;DHT22;4963;51.444;6.528;2023-05-10T05:49:57;15.30;99.90
9849;DHT22;4963;51.444;6.528;2023-05-10T05:52:24;15.20;99.90
9849;DHT22;4963;51.444;6.528;2023-05-10T05:54:52;14.90;99.90
9849;DHT22;4963;51.444;6.528;2023-05-10T05:57:19;15.30;99.90
9849;DHT22;4963;51.444;6.528;2023-05-10T05:59:47;15.00;99.90
9849;DHT22;4963;51.444;6.528;2023-05-10T06:02:16;14.90;99.90
9849;DHT22;4963;51.444;6.528;2023-05-10T06:04:46;14.90;99.90
9849;DHT22;4963;51.444;6.528;2023-05-10T06:07:25;14.90;99.90
9849;DHT22;4963;51.444;6.528;2023-05-10T06:09:54;14.70;99.90
9849;DHT22;4963;51.444;6.528;2023-05-10T06:12:22;14.90;99.90
9849;DHT22;4963;51.444;6.528;2023-05-10T06:14:49;14.90;99.90
9849;DHT22;4963;51.444;6.528;2023-05-10T06:17:16;14.90;99.90
9849;DHT22;4963;51.444;6.528;2023-05-10T06:19:44;15.10;99.90
9849;DHT22;4963;51.444;6.528;2023-05-10T06:22:22;14.90;99.90
9849;DHT22;4963;51.444;6.528;2023-05-10T06:24:59;15.20;99.90
9849;DHT22;4963;51.444;6.528;2023-05-10T06:27:29;15.30;99.90
9849;DHT22;4963;51.444;6.528;2023-05-10T06:30:26;14.80;99.90
9849;DHT22;4963;51.444;6.528;2023-05-10T06:33:26;15.00;99.90
9849;DHT22;4963;51.444;6.528;2023-05-10T06:39:43;14.90;99.90
9849;DHT22;4963;51.444;6.528;2023-05-10T06:42:12;14.90;99.90
9849;DHT22;4963;51.444;6.528;2023-05-10T06:44:38;15.00;99.90
9849;DHT22;4963;51.444;6.528;2023-05-10T06:47:05;15.10;99.90
9849;DHT22;4963;51.444;6.528;2023-05-10T06:49:32;15.10;99.90
9849;DHT22;4963;51.444;6.528;2023-05-10T06:51:59;15.20;99.90
9849;DHT22;4963;51.444;6.528;2023-05-10T06:54:25;15.20;99.90
9849;DHT22;4963;51.444;6.528;2023-05-10T06:56:52;15.30;99.90
9849;DHT22;4963;51.444;6.528;2023-05-10T06:59:20;15.30;99.90
9849;DHT22;4963;51.444;6.528;2023-05-10T07:01:48;15.30;99.90
9849;DHT22;4963;51.444;6.528;2023-05-10T07:04:14;15.30;99.90
9849;DHT22;4963;51.444;6.528;2023-05-10T07:06:41;15.40;99.90
9849;DHT22;4963;51.444;6.528;2023-05-10T07:09:08;15.40;99.90
9849;DHT22;4963;51.444;6.528;2023-05-10T07:11:35;15.50;99.90
9849;DHT22;4963;51.444;6.528;2023-05-10T07:14:02;15.40;99.90
9849;DHT22;4963;51.444;6.528;2023-05-10T07:16:31;15.50;99.90
9849;DHT22;4963;51.444;6.528;2023-05-10T07:18:57;15.50;99.90
9849;DHT22;4963;51.444;6.528;2023-05-10T07:21:24;15.60;99.90
9849;DHT22;4963;51.444;6.528;2023-05-10T07:23:53;15.60;99.90
9849;DHT22;4963;51.444;6.528;2023-05-10T07:26:20;15.50;99.90
9849;DHT22;4963;51.444;6.528;2023-05-10T07:28:47;15.70;99.90
9849;DHT22;4963;51.444;6.528;2023-05-10T07:31:14;15.70;99.90
9849;DHT22;4963;51.444;6.528;2023-05-10T07:33:42;15.80;99.90
9849;DHT22;4963;51.444;6.528;2023-05-10T07:36:09;15.80;99.90
9849;DHT22;4963;51.444;6.528;2023-05-10T07:38:36;15.90;99.90
9849;DHT22;4963;51.444;6.528;2023-05-10T07:41:02;15.90;99.90
9849;DHT22;4963;51.444;6.528;2023-05-10T07:43:29;15.90;99.90
9849;DHT22;4963;51.444;6.528;2023-05-10T07:45:56;15.90;99.90
9849;DHT22;4963;51.444;6.528;2023-05-10T07:48:25;15.70;99.90
9849;DHT22;4963;51.444;6.528;2023-05-10T07:50:53;15.70;99.90
9849;DHT22;4963;51.444;6.528;2023-05-10T07:53:20;15.70;99.90
9849;DHT22;4963;51.444;6.528;2023-05-10T07:55:50;15.70;99.90
9849;DHT22;4963;51.444;6.528;2023-05-10T07:58:17;15.80;99.90
9849;DHT22;4963;51.444;6.528;2023-05-10T08:00:43;15.90;99.90
9849;DHT22;4963;51.444;6.528;2023-05-10T08:03:10;15.80;99.90
9849;DHT22;4963;51.444;6.528;2023-05-10T08:05:37;16.00;99.90
9849;DHT22;4963;51.444;6.528;2023-05-10T08:08:05;16.20;99.90
9849;DHT22;4963;51.444;6.528;2023-05-10T08:10:32;16.50;99.90
9849;DHT22;4963;51.444;6.528;2023-05-10T08:12:59;16.70;99.90
9849;DHT22;4963;51.444;6.528;2023-05-10T08:15:26;17.00;99.90
9849;DHT22;4963;51.444;6.528;2023-05-10T08:17:52;17.20;99.90
9849;DHT22;4963;51.444;6.528;2023-05-10T08:20:20;17.40;99.90
9849;DHT22;4963;51.444;6.528;2023-05-10T08:22:46;17.50;99.90
9849;DHT22;4963;51.444;6.528;2023-05-10T08:25:15;17.60;99.90
9849;DHT22;4963;51.444;6.528;2023-05-10T08:27:41;17.60;99.90
9849;DHT22;4963;51.444;6.528;2023-05-10T08:30:09;17.60;99.90
9849;DHT22;4963;51.444;6.528;2023-05-10T08:32:36;17.60;99.90
9849;DHT22;4963;51.444;6.528;2023-05-10T08:35:04;17.50;99.90
9849;DHT22;4963;51.444;6.528;2023-05-10T08:37:30;17.40;99.90
9849;DHT22;4963;51.444;6.528;2023-05-10T08:39:58;17.30;99.90
9849;DHT22;4963;51.444;6.528;2023-05-10T08:42:29;17.20;99.90
9849;DHT22;4963;51.444;6.528;2023-05-10T08:44:57;17.20;99.90
9849;DHT22;4963;51.444;6.528;2023-05-10T08:47:25;17.00;99.90
9849;DHT22;4963;51.444;6.528;2023-05-10T08:49:53;17.00;99.90
9849;DHT22;4963;51.444;6.528;2023-05-10T08:52:21;16.80;99.90
9849;DHT22;4963;51.444;6.528;2023-05-10T08:54:51;16.60;99.90
9849;DHT22;4963;51.444;6.528;2023-05-10T08:57:19;16.60;99.90
9849;DHT22;4963;51.444;6.528;2023-05-10T08:59:47;16.60;99.90
9849;DHT22;4963;51.444;6.528;2023-05-10T09:02:14;16.70;99.90
9849;DHT22;4963;51.444;6.528;2023-05-10T09:04:42;16.60;99.90
9849;DHT22;4963;51.444;6.528;2023-05-10T09:07:08;16.50;99.90
9849;DHT22;4963;51.444;6.528;2023-05-10T09:09:37;16.40;99.90
9849;DHT22;4963;51.444;6.528;2023-05-10T09:12:04;16.30;99.90
9849;DHT22;4963;51.444;6.528;2023-05-10T09:14:33;16.30;99.90
9849;DHT22;4963;51.444;6.528;2023-05-10T09:17:02;16.40;99.90
9849;DHT22;4963;51.444;6.528;2023-05-10T09:19:29;16.30;99.90
9849;DHT22;4963;51.444;6.528;2023-05-10T09:21:56;16.30;99.90
9849;DHT22;4963;51.444;6.528;2023-05-10T09:24:25;16.20;99.90
9849;DHT22;4963;51.444;6.528;2023-05-10T09:26:53;16.20;99.90
9849;DHT22;4963;51.444;6.528;2023-05-10T09:29:20;16.10;99.90
9849;DHT22;4963;51.444;6.528;2023-05-10T09:31:48;16.10;99.90
9849;DHT22;4963;51.444;6.528;2023-05-10T09:34:19;16.00;99.90
9849;DHT22;4963;51.444;6.528;2023-05-10T09:36:54;16.00;99.90
9849;DHT22;4963;51.444;6.528;2023-05-10T09:39:30;16.00;99.90
9849;DHT22;4963;51.444;6.528;2023-05-10T09:41:58;16.00;99.90
9849;DHT22;4963;51.444;6.528;2023-05-10T09:44:26;16.00;99.90
9849;DHT22;4963;51.444;6.528;2023-05-10T09:46:52;16.00;99.90
9849;DHT22;4963;51.444;6.528;2023-05-10T09:49:21;16.10;99.90
9849;DHT22;4963;51.444;6.528;2023-05-10T09:52:01;16.00;99.90
9849;DHT22;4963;51.444;6.528;2023-05-10T09:54:29;16.00;99.90
9849;DHT22;4963;51.444;6.528;2023-05-10T09:56:57;16.10;99.90
9849;DHT22;4963;51.444;6.528;2023-05-10T09:59:25;15.80;99.90
9849;DHT22;4963;51.444;6.528;2023-05-10T10:01:52;16.10;99.90
9849;DHT22;4963;51.444;6.528;2023-05-10T10:04:21;16.30;99.90
9849;DHT22;4963;51.444;6.528;2023-05-10T10:06:58;16.20;99.90
9849;DHT22;4963;51.444;6.528;2023-05-10T10:09:25;16.20;99.90
9849;DHT22;4963;51.444;6.528;2023-05-10T10:11:54;16.20;99.90
9849;DHT22;4963;51.444;6.528;2023-05-10T10:14:22;16.30;99.90
9849;DHT22;4963;51.444;6.528;2023-05-10T10:16:49;16.40;99.90
9849;DHT22;4963;51.444;6.528;2023-05-10T10:19:17;16.40;99.90
9849;DHT22;4963;51.444;6.528;2023-05-10T10:21:46;16.40;99.90
9849;DHT22;4963;51.444;6.528;2023-05-10T10:24:12;16.40;99.90
9849;DHT22;4963;51.444;6.528;2023-05-10T10:26:40;16.40;99.90
9849;DHT22;4963;51.444;6.528;2023-05-10T10:29:16;16.40;99.90
9849;DHT22;4963;51.444;6.528;2023-05-10T10:31:48;16.50;99.90
9849;DHT22;4963;51.444;6.528;2023-05-10T10:34:25;16.50;99.90
9849;DHT22;4963;51.444;6.528;2023-05-10T10:36:55;16.30;99.90
9849;DHT22;4963;51.444;6.528;2023-05-10T10:39:23;16.30;99.90
9849;DHT22;4963;51.444;6.528;2023-05-10T10:41:52;16.30;99.90
9849;DHT22;4963;51.444;6.528;2023-05-10T10:44:24;16.40;99.90
9849;DHT22;4963;51.444;6.528;2023-05-10T10:47:02;16.40;99.90
9849;DHT22;4963;51.444;6.528;2023-05-10T10:49:31;16.40;99.90
9849;DHT22;4963;51.444;6.528;2023-05-10T10:52:28;16.40;99.90
9849;DHT22;4963;51.444;6.528;2023-05-10T10:55:00;16.30;99.90
9849;DHT22;4963;51.444;6.528;2023-05-10T10:57:28;16.30;99.90
9849;DHT22;4963;51.444;6.528;2023-05-10T11:00:23;16.40;99.90
9849;DHT22;4963;51.444;6.528;2023-05-10T11:02:51;16.40;99.90
9849;DHT22;4963;51.444;6.528;2023-05-10T11:05:35;16.40;99.90
9849;DHT22;4963;51.444;6.528;2023-05-10T11:08:10;16.40;99.90
9849;DHT22;4963;51.444;6.528;2023-05-10T11:10:38;16.50;99.90
9849;DHT22;4963;51.444;6.528;2023-05-10T11:13:06;16.50;99.90
9849;DHT22;4963;51.444;6.528;2023-05-10T11:15:34;16.50;99.90
9849;DHT22;4963;51.444;6.528;2023-05-10T11:18:17;16.50;99.90
9849;DHT22;4963;51.444;6.528;2023-05-10T11:20:50;16.40;99.90
9849;DHT22;4963;51.444;6.528;2023-05-10T11:23:19;16.30;99.90
9849;DHT22;4963;51.444;6.528;2023-05-10T11:25:48;16.30;99.90
9849;DHT22;4963;51.444;6.528;2023-05-10T11:28:17;16.30;99.90
9849;DHT22;4963;51.444;6.528;2023-05-10T11:30:44;16.30;99.90
9849;DHT22;4963;51.444;6.528;2023-05-10T11:33:15;16.30;99.90
9849;DHT22;4963;51.444;6.528;2023-05-10T11:35:42;16.40;99.90
9849;DHT22;4963;51.444;6.528;2023-05-10T11:38:11;16.40;99.90
9849;DHT22;4963;51.444;6.528;2023-05-10T11:40:40;16.40;99.90
9849;DHT22;4963;51.444;6.528;2023-05-10T11:43:09;16.50;99.90
9849;DHT22;4963;51.444;6.528;2023-05-10T11:45:37;16.50;99.90
9849;DHT22;4963;51.444;6.528;2023-05-10T11:48:04;16.50;99.90
9849;DHT22;4963;51.444;6.528;2023-05-10T11:50:31;16.50;99.90
9849;DHT22;4963;51.444;6.528;2023-05-10T11:52:58;16.50;99.90
9849;DHT22;4963;51.444;6.528;2023-05-10T11:55:25;16.50;99.90
9849;DHT22;4963;51.444;6.528;2023-05-10T11:57:53;16.50;99.90
9849;DHT22;4963;51.444;6.528;2023-05-10T12:00:21;16.50;99.90
9849;DHT22;4963;51.444;6.528;2023-05-10T12:02:48;16.50;99.90
9849;DHT22;4963;51.444;6.528;2023-05-10T12:05:15;16.60;99.90
9849;DHT22;4963;51.444;6.528;2023-05-10T12:07:42;16.60;99.90
9849;DHT22;4963;51.444;6.528;2023-05-10T12:10:10;16.50;99.90
9849;DHT22;4963;51.444;6.528;2023-05-10T12:12:40;16.60;99.90
9849;DHT22;4963;51.444;6.528;2023-05-10T12:15:17;16.60;99.90
9849;DHT22;4963;51.444;6.528;2023-05-10T12:17:45;16.80;99.90
9849;DHT22;4963;51.444;6.528;2023-05-10T12:20:16;17.00;99.90
9849;DHT22;4963;51.444;6.528;2023-05-10T12:22:47;17.00;99.90
9849;DHT22;4963;51.444;6.528;2023-05-10T12:25:16;17.10;99.90
9849;DHT22;4963;51.444;6.528;2023-05-10T12:27:51;17.20;99.90
9849;DHT22;4963;51.444;6.528;2023-05-10T12:30:23;17.40;99.90
9849;DHT22;4963;51.444;6.528;2023-05-10T12:32:50;17.50;99.90
9849;DHT22;4963;51.444;6.528;2023-05-10T12:35:18;17.50;99.90
9849;DHT22;4963;51.444;6.528;2023-05-10T12:37:47;17.70;99.90
9849;DHT22;4963;51.444;6.528;2023-05-10T12:40:14;17.80;99.90
9849;DHT22;4963;51.444;6.528;2023-05-10T12:42:41;18.00;99.90
9849;DHT22;4963;51.444;6.528;2023-05-10T12:45:11;18.00;99.90
9849;DHT22;4963;51.444;6.528;2023-05-10T12:47:39;18.00;99.90
9849;DHT22;4963;51.444;6.528;2023-05-10T12:50:06;18.00;99.90
9849;DHT22;4963;51.444;6.528;2023-05-10T12:52:33;18.00;99.90
9849;DHT22;4963;51.444;6.528;2023-05-10T12:55:00;18.00;99.90
9849;DHT22;4963;51.444;6.528;2023-05-10T12:57:28;18.10;99.90
9849;DHT22;4963;51.444;6.528;2023-05-10T12:59:56;18.10;99.90
9849;DHT22;4963;51.444;6.528;2023-05-10T13:02:22;18.10;99.90
9849;DHT22;4963;51.444;6.528;2023-05-10T13:04:52;18.00;99.90
9849;DHT22;4963;51.444;6.528;2023-05-10T13:07:19;17.90;99.90
9849;DHT22;4963;51.444;6.528;2023-05-10T13:09:45;18.00;99.90
9849;DHT22;4963;51.444;6.528;2023-05-10T13:12:12;18.00;99.90
9849;DHT22;4963;51.444;6.528;2023-05-10T13:14:39;18.20;99.90
9849;DHT22;4963;51.444;6.528;2023-05-10T13:17:07;18.30;99.90
9849;DHT22;4963;51.444;6.528;2023-05-10T13:19:34;18.30;99.90
9849;DHT22;4963;51.444;6.528;2023-05-10T13:22:02;18.40;99.90
9849;DHT22;4963;51.444;6.528;2023-05-10T13:24:30;18.30;99.90
9849;DHT22;4963;51.444;6.528;2023-05-10T13:26:56;18.40;99.90
9849;DHT22;4963;51.444;6.528;2023-05-10T13:29:23;18.20;99.90
9849;DHT22;4963;51.444;6.528;2023-05-10T13:31:50;18.30;99.90
9849;DHT22;4963;51.444;6.528;2023-05-10T13:34:17;18.10;99.90
9849;DHT22;4963;51.444;6.528;2023-05-10T13:36:46;18.10;99.90
9849;DHT22;4963;51.444;6.528;2023-05-10T13:39:14;18.00;99.90
9849;DHT22;4963;51.444;6.528;2023-05-10T13:41:41;18.00;99.90
9849;DHT22;4963;51.444;6.528;2023-05-10T13:44:08;18.20;99.90
9849;DHT22;4963;51.444;6.528;2023-05-10T13:46:34;18.20;99.90
9849;DHT22;4963;51.444;6.528;2023-05-10T13:49:01;18.20;99.90
9849;DHT22;4963;51.444;6.528;2023-05-10T13:51:28;18.20;99.90
9849;DHT22;4963;51.444;6.528;2023-05-10T13:53:57;18.20;99.90
9849;DHT22;4963;51.444;6.528;2023-05-10T13:56:25;18.30;99.90
9849;DHT22;4963;51.444;6.528;2023-05-10T13:58:52;18.40;99.90
9849;DHT22;4963;51.444;6.528;2023-05-10T14:01:18;18.50;99.90
9849;DHT22;4963;51.444;6.528;2023-05-10T14:03:45;18.50;99.90
9849;DHT22;4963;51.444;6.528;2023-05-10T14:06:12;18.60;99.90
9849;DHT22;4963;51.444;6.528;2023-05-10T14:08:39;18.80;99.90
9849;DHT22;4963;51.444;6.528;2023-05-10T14:11:06;18.90;99.90
9849;DHT22;4963;51.444;6.528;2023-05-10T14:13:34;18.80;99.90
9849;DHT22;4963;51.444;6.528;2023-05-10T14:16:01;18.80;99.90
9849;DHT22;4963;51.444;6.528;2023-05-10T14:18:27;18.70;99.90
9849;DHT22;4963;51.444;6.528;2023-05-10T14:20:54;18.90;99.90
9849;DHT22;4963;51.444;6.528;2023-05-10T14:23:22;18.80;99.90
9849;DHT22;4963;51.444;6.528;2023-05-10T14:25:50;18.80;99.90
9849;DHT22;4963;51.444;6.528;2023-05-10T14:28:17;18.70;99.90
9849;DHT22;4963;51.444;6.528;2023-05-10T14:30:47;18.60;99.90
9849;DHT22;4963;51.444;6.528;2023-05-10T14:33:14;18.70;99.90
9849;DHT22;4963;51.444;6.528;2023-05-10T14:35:41;18.60;99.90
9849;DHT22;4963;51.444;6.528;2023-05-10T14:38:07;18.60;99.90
9849;DHT22;4963;51.444;6.528;2023-05-10T14:40:34;18.50;99.90
9849;DHT22;4963;51.444;6.528;2023-05-10T14:43:01;18.30;99.90
9849;DHT22;4963;51.444;6.528;2023-05-10T14:45:28;18.30;99.90
9849;DHT22;4963;51.444;6.528;2023-05-10T14:47:56;18.00;99.90
9849;DHT22;4963;51.444;6.528;2023-05-10T14:50:24;17.80;99.90
9849;DHT22;4963;51.444;6.528;2023-05-10T14:52:51;17.60;99.90
9849;DHT22;4963;51.444;6.528;2023-05-10T14:55:18;17.40;99.90
9849;DHT22;4963;51.444;6.528;2023-05-10T14:57:44;17.20;99.90
9849;DHT22;4963;51.444;6.528;2023-05-10T15:00:13;17.10;99.90
9849;DHT22;4963;51.444;6.528;2023-05-10T15:02:41;17.10;99.90
9849;DHT22;4963;51.444;6.528;2023-05-10T15:05:09;16.80;99.90
9849;DHT22;4963;51.444;6.528;2023-05-10T15:07:36;16.70;99.90
9849;DHT22;4963;51.444;6.528;2023-05-10T15:10:04;16.70;99.90
9849;DHT22;4963;51.444;6.528;2023-05-10T15:12:31;16.60;99.90
9849;DHT22;4963;51.444;6.528;2023-05-10T15:14:58;16.60;99.90
9849;DHT22;4963;51.444;6.528;2023-05-10T15:17:25;16.70;99.90
9849;DHT22;4963;51.444;6.528;2023-05-10T15:19:51;16.60;99.90
9849;DHT22;4963;51.444;6.528;2023-05-10T15:22:19;16.50;99.90
9849;DHT22;4963;51.444;6.528;2023-05-10T15:24:46;16.40;99.90
9849;DHT22;4963;51.444;6.528;2023-05-10T15:27:13;16.40;99.90
9849;DHT22;4963;51.444;6.528;2023-05-10T15:29:40;16.30;99.90
9849;DHT22;4963;51.444;6.528;2023-05-10T15:32:07;16.00;99.90
9849;DHT22;4963;51.444;6.528;2023-05-10T15:34:33;16.20;99.90
9849;DHT22;4963;51.444;6.528;2023-05-10T15:37:01;16.20;99.90
9849;DHT22;4963;51.444;6.528;2023-05-10T15:39:29;16.20;99.90
9849;DHT22;4963;51.444;6.528;2023-05-10T15:41:56;16.20;99.90
9849;DHT22;4963;51.444;6.528;2023-05-10T15:44:23;16.20;99.90
9849;DHT22;4963;51.444;6.528;2023-05-10T15:46:49;16.30;99.90
9849;DHT22;4963;51.444;6.528;2023-05-10T15:49:17;16.30;99.90
9849;DHT22;4963;51.444;6.528;2023-05-10T15:51:43;16.30;99.90
9849;DHT22;4963;51.444;6.528;2023-05-10T15:54:10;16.30;99.90
9849;DHT22;4963;51.444;6.528;2023-05-10T15:56:39;16.40;99.90
9849;DHT22;4963;51.444;6.528;2023-05-10T15:59:06;16.20;99.90
9849;DHT22;4963;51.444;6.528;2023-05-10T16:01:35;16.30;99.90
9849;DHT22;4963;51.444;6.528;2023-05-10T16:04:02;16.20;99.90
9849;DHT22;4963;51.444;6.528;2023-05-10T16:06:29;16.10;99.90
9849;DHT22;4963;51.444;6.528;2023-05-10T16:08:56;16.00;99.90
9849;DHT22;4963;51.444;6.528;2023-05-10T16:11:22;16.00;99.90
9849;DHT22;4963;51.444;6.528;2023-05-10T16:13:51;15.90;99.90
9849;DHT22;4963;51.444;6.528;2023-05-10T16:16:18;15.80;99.90
9849;DHT22;4963;51.444;6.528;2023-05-10T16:18:48;15.80;99.90
9849;DHT22;4963;51.444;6.528;2023-05-10T16:21:14;15.70;99.90